sensor_id;sensor_type;location;lat;lon;timestamp;pressure;altitude;pressure_sealevel;temperature;humidity
39341;BME280;25059;52.132;21.062;2023-03-20T06:44:22;100265.34;;;8.32;100.00
39341;BME280;25059;52.132;21.062;2023-03-20T06:47:10;100261.06;;;8.29;100.00
39341;BME280;25059;52.132;21.062;2023-03-20T06:49:57;100263.00;;;8.52;100.00
39341;BME280;25059;52.132;21.062;2023-03-20T06:52:42;100270.06;;;8.50;100.00
39341;BME280;25059;52.132;21.062;2023-03-20T06:55:28;100241.22;;;8.50;100.00
39341;BME280;25059;52.132;21.062;2023-03-20T06:58:12;100263.97;;;8.76;100.00
39341;BME280;25059;52.132;21.062;2023-03-20T07:00:57;100269.16;;;8.78;100.00
39341;BME280;25059;52.132;21.062;2023-03-20T07:03:42;100259.13;;;8.90;100.00
39341;BME280;25059;52.132;21.062;2023-03-20T07:06:27;100262.25;;;9.01;100.00
39341;BME280;25059;52.132;21.062;2023-03-20T07:09:12;100261.81;;;9.14;100.00
39341;BME280;25059;52.132;21.062;2023-03-20T07:12:00;100264.44;;;9.14;100.00
39341;BME280;25059;52.132;21.062;2023-03-20T07:14:48;100270.66;;;9.36;100.00
39341;BME280;25059;52.132;21.062;2023-03-20T07:17:34;100261.53;;;9.46;99.91
39341;BME280;25059;52.132;21.062;2023-03-20T07:20:19;100271.16;;;9.70;98.71
39341;BME280;25059;52.132;21.062;2023-03-20T07:23:03;100262.88;;;9.81;96.90
39341;BME280;25059;52.132;21.062;2023-03-20T07:25:48;100264.69;;;10.02;96.31
39341;BME280;25059;52.132;21.062;2023-03-20T07:28:33;100253.97;;;10.32;94.42
39341;BME280;25059;52.132;21.062;2023-03-20T07:31:23;100264.91;;;10.65;92.36
39341;BME280;25059;52.132;21.062;2023-03-20T07:34:08;100248.38;;;10.83;90.80
39341;BME280;25059;52.132;21.062;2023-03-20T07:36:53;100244.03;;;11.03;89.84
39341;BME280;25059;52.132;21.062;2023-03-20T07:39:37;100258.78;;;11.27;88.22
39341;BME280;25059;52.132;21.062;2023-03-20T07:42:26;100243.78;;;11.68;85.77
39341;BME280;25059;52.132;21.062;2023-03-20T07:45:10;100255.28;;;12.23;83.21
39341;BME280;25059;52.132;21.062;2023-03-20T07:47:57;100251.66;;;12.62;81.02
39341;BME280;25059;52.132;21.062;2023-03-20T08:14:39;100241.53;;;14.84;66.88
39341;BME280;25059;52.132;21.062;2023-03-20T08:17:47;100224.88;;;14.82;67.10
39341;BME280;25059;52.132;21.062;2023-03-20T08:20:48;100242.16;;;14.73;66.36
39341;BME280;25059;52.132;21.062;2023-03-20T08:24:11;100238.06;;;14.98;66.53
39341;BME280;25059;52.132;21.062;2023-03-20T08:44:53;100233.22;;;14.90;65.37
39341;BME280;25059;52.132;21.062;2023-03-20T08:47:42;100223.28;;;14.79;65.31
39341;BME280;25059;52.132;21.062;2023-03-20T08:50:29;100240.44;;;14.72;65.77
39341;BME280;25059;52.132;21.062;2023-03-20T08:53:16;100246.50;;;15.04;65.05
39341;BME280;25059;52.132;21.062;2023-03-20T08:56:01;100249.28;;;14.87;62.35
39341;BME280;25059;52.132;21.062;2023-03-20T08:58:53;100259.59;;;14.62;61.72
39341;BME280;25059;52.132;21.062;2023-03-20T09:01:42;100249.25;;;14.41;61.73
39341;BME280;25059;52.132;21.062;2023-03-20T09:04:31;100254.81;;;14.52;62.55
39341;BME280;25059;52.132;21.062;2023-03-20T09:07:15;100250.94;;;14.74;62.34
39341;BME280;25059;52.132;21.062;2023-03-20T09:10:07;100251.63;;;15.07;61.90
39341;BME280;25059;52.132;21.062;2023-03-20T09:12:53;100249.03;;;15.36;60.51
39341;BME280;25059;52.132;21.062;2023-03-20T09:15:41;100250.44;;;15.27;59.57
39341;BME280;25059;52.132;21.062;2023-03-20T09:18:38;100247.06;;;15.54;59.01
39341;BME280;25059;52.132;21.062;2023-03-20T09:21:26;100242.28;;;15.60;59.23
39341;BME280;25059;52.132;21.062;2023-03-20T09:24:23;100241.63;;;15.71;58.63
39341;BME280;25059;52.132;21.062;2023-03-20T09:27:08;100241.31;;;15.61;58.24
39341;BME280;25059;52.132;21.062;2023-03-20T09:29:53;100245.72;;;15.32;57.34
39341;BME280;25059;52.132;21.062;2023-03-20T09:32:42;100230.50;;;14.92;57.19
39341;BME280;25059;52.132;21.062;2023-03-20T09:35:36;100237.06;;;15.14;57.35
39341;BME280;25059;52.132;21.062;2023-03-20T09:38:27;100241.91;;;15.22;58.24
39341;BME280;25059;52.132;21.062;2023-03-20T09:41:15;100245.16;;;14.97;57.86
39341;BME280;25059;52.132;21.062;2023-03-20T09:50:33;100240.00;;;15.10;58.08
39341;BME280;25059;52.132;21.062;2023-03-20T09:53:35;100230.22;;;15.40;58.14
39341;BME280;25059;52.132;21.062;2023-03-20T09:56:29;100229.59;;;15.79;57.47
39341;BME280;25059;52.132;21.062;2023-03-20T09:59:38;100226.16;;;15.92;56.15
39341;BME280;25059;52.132;21.062;2023-03-20T10:02:38;100228.53;;;15.96;55.89
39341;BME280;25059;52.132;21.062;2023-03-20T10:05:38;100222.66;;;16.73;55.00
39341;BME280;25059;52.132;21.062;2023-03-20T10:08:43;100231.69;;;18.23;51.23
39341;BME280;25059;52.132;21.062;2023-03-20T10:15:27;100217.06;;;21.42;42.53
39341;BME280;25059;52.132;21.062;2023-03-20T10:18:40;100211.69;;;22.52;39.46
39341;BME280;25059;52.132;21.062;2023-03-20T10:21:41;100209.63;;;21.24;41.32
39341;BME280;25059;52.132;21.062;2023-03-20T10:24:36;100201.88;;;20.25;42.40
39341;BME280;25059;52.132;21.062;2023-03-20T10:27:58;100209.59;;;21.04;41.61
39341;BME280;25059;52.132;21.062;2023-03-20T10:34:40;100205.06;;;20.62;41.40
39341;BME280;25059;52.132;21.062;2023-03-20T10:40:52;100206.06;;;20.82;42.35
39341;BME280;25059;52.132;21.062;2023-03-20T10:44:30;100190.91;;;24.87;36.13
39341;BME280;25059;52.132;21.062;2023-03-20T10:49:02;100204.84;;;23.45;35.38
39341;BME280;25059;52.132;21.062;2023-03-20T10:51:52;100221.06;;;21.87;37.90
39341;BME280;25059;52.132;21.062;2023-03-20T10:54:41;100199.78;;;22.26;37.37
39341;BME280;25059;52.132;21.062;2023-03-20T10:57:37;100211.84;;;21.71;38.06
39341;BME280;25059;52.132;21.062;2023-03-20T11:00:57;100221.63;;;20.77;40.17
39341;BME280;25059;52.132;21.062;2023-03-20T11:03:47;100234.53;;;19.04;44.15
39341;BME280;25059;52.132;21.062;2023-03-20T11:10:13;100217.69;;;18.08;47.69
39341;BME280;25059;52.132;21.062;2023-03-20T11:16:29;100236.56;;;17.93;49.89
39341;BME280;25059;52.132;21.062;2023-03-20T11:19:21;100231.13;;;18.31;49.52
39341;BME280;25059;52.132;21.062;2023-03-20T11:25:22;100210.38;;;19.41;46.66
39341;BME280;25059;52.132;21.062;2023-03-20T11:28:36;100205.63;;;19.22;46.80
39341;BME280;25059;52.132;21.062;2023-03-20T11:31:39;100210.16;;;18.63;47.26
39341;BME280;25059;52.132;21.062;2023-03-20T11:34:27;100203.22;;;18.84;47.76
39341;BME280;25059;52.132;21.062;2023-03-20T11:37:21;100187.47;;;19.50;45.84
39341;BME280;25059;52.132;21.062;2023-03-20T11:40:15;100187.31;;;19.18;46.30
39341;BME280;25059;52.132;21.062;2023-03-20T11:43:08;100201.53;;;18.83;46.34
39341;BME280;25059;52.132;21.062;2023-03-20T11:46:02;100189.84;;;18.25;48.09
39341;BME280;25059;52.132;21.062;2023-03-20T11:49:02;100193.25;;;18.75;47.30
39341;BME280;25059;52.132;21.062;2023-03-20T11:51:51;100198.50;;;18.40;47.53
39341;BME280;25059;52.132;21.062;2023-03-20T11:55:33;100184.38;;;17.66;49.20
39341;BME280;25059;52.132;21.062;2023-03-20T11:58:20;100202.13;;;17.40;49.87
39341;BME280;25059;52.132;21.062;2023-03-20T12:01:08;100183.28;;;16.93;50.82
39341;BME280;25059;52.132;21.062;2023-03-20T12:04:06;100184.53;;;16.87;51.57
39341;BME280;25059;52.132;21.062;2023-03-20T12:07:18;100193.53;;;16.72;52.62
39341;BME280;25059;52.132;21.062;2023-03-20T12:10:10;100193.75;;;16.69;53.11
39341;BME280;25059;52.132;21.062;2023-03-20T12:13:03;100187.78;;;16.38;53.80
39341;BME280;25059;52.132;21.062;2023-03-20T12:16:01;100189.44;;;16.27;55.59
39341;BME280;25059;52.132;21.062;2023-03-20T12:18:53;100187.22;;;16.06;56.15
39341;BME280;25059;52.132;21.062;2023-03-20T12:22:02;100190.34;;;16.40;55.74
39341;BME280;25059;52.132;21.062;2023-03-20T12:25:03;100183.22;;;16.13;55.98
39341;BME280;25059;52.132;21.062;2023-03-20T12:28:09;100182.34;;;15.72;57.04
39341;BME280;25059;52.132;21.062;2023-03-20T12:37:34;100179.03;;;15.54;57.43
39341;BME280;25059;52.132;21.062;2023-03-20T12:40:40;100169.38;;;15.53;57.80
39341;BME280;25059;52.132;21.062;2023-03-20T12:44:19;100163.13;;;15.54;57.46
39341;BME280;25059;52.132;21.062;2023-03-20T12:50:06;100178.72;;;15.87;53.90
39341;BME280;25059;52.132;21.062;2023-03-20T12:56:27;100179.97;;;16.50;52.52
39341;BME280;25059;52.132;21.062;2023-03-20T12:59:34;100178.66;;;16.15;53.68
39341;BME280;25059;52.132;21.062;2023-03-20T13:11:51;100179.75;;;14.99;58.86
39341;BME280;25059;52.132;21.062;2023-03-20T13:24:53;100165.91;;;14.80;66.75
39341;BME280;25059;52.132;21.062;2023-03-20T13:34:28;100150.75;;;14.68;74.33
39341;BME280;25059;52.132;21.062;2023-03-20T13:37:32;100154.47;;;14.94;74.99
39341;BME280;25059;52.132;21.062;2023-03-20T13:40:44;100163.50;;;15.19;76.30
39341;BME280;25059;52.132;21.062;2023-03-20T13:43:33;100180.41;;;15.03;82.96
39341;BME280;25059;52.132;21.062;2023-03-20T13:46:40;100171.63;;;14.42;92.35
39341;BME280;25059;52.132;21.062;2023-03-20T13:52:22;100176.59;;;13.85;100.00
39341;BME280;25059;52.132;21.062;2023-03-20T13:55:29;100163.13;;;13.90;100.00
39341;BME280;25059;52.132;21.062;2023-03-20T14:01:27;100160.38;;;14.07;100.00
39341;BME280;25059;52.132;21.062;2023-03-20T14:04:21;100156.22;;;14.03;100.00
39341;BME280;25059;52.132;21.062;2023-03-20T14:07:35;100145.72;;;14.17;100.00
39341;BME280;25059;52.132;21.062;2023-03-20T14:13:12;100153.31;;;14.08;100.00
39341;BME280;25059;52.132;21.062;2023-03-20T14:16:04;100143.75;;;14.05;100.00
39341;BME280;25059;52.132;21.062;2023-03-20T14:19:18;100163.97;;;13.90;100.00
39341;BME280;25059;52.132;21.062;2023-03-20T14:22:13;100156.22;;;13.87;100.00
39341;BME280;25059;52.132;21.062;2023-03-20T14:25:06;100160.06;;;13.98;100.00
39341;BME280;25059;52.132;21.062;2023-03-20T14:27:56;100156.81;;;13.93;100.00
39341;BME280;25059;52.132;21.062;2023-03-20T14:30:44;100154.00;;;13.96;100.00
39341;BME280;25059;52.132;21.062;2023-03-20T14:33:42;100156.47;;;13.99;100.00
39341;BME280;25059;52.132;21.062;2023-03-20T14:36:30;100172.06;;;13.87;100.00
39341;BME280;25059;52.132;21.062;2023-03-20T14:45:50;100159.19;;;13.97;100.00
39341;BME280;25059;52.132;21.062;2023-03-20T14:48:45;100156.97;;;14.05;100.00
39341;BME280;25059;52.132;21.062;2023-03-20T14:51:44;100156.28;;;13.70;100.00
39341;BME280;25059;52.132;21.062;2023-03-20T14:54:31;100152.38;;;13.62;100.00
39341;BME280;25059;52.132;21.062;2023-03-20T14:57:29;100170.00;;;13.61;100.00
39341;BME280;25059;52.132;21.062;2023-03-20T15:00:20;100161.53;;;13.39;100.00
39341;BME280;25059;52.132;21.062;2023-03-20T15:03:10;100149.00;;;13.27;100.00
39341;BME280;25059;52.132;21.062;2023-03-20T15:06:00;100157.25;;;13.20;100.00
39341;BME280;25059;52.132;21.062;2023-03-20T15:08:53;100176.84;;;13.15;100.00
39341;BME280;25059;52.132;21.062;2023-03-20T15:11:40;100160.81;;;13.02;100.00
39341;BME280;25059;52.132;21.062;2023-03-20T15:14:27;100168.41;;;12.39;100.00
39341;BME280;25059;52.132;21.062;2023-03-20T15:17:18;100177.06;;;11.88;100.00
39341;BME280;25059;52.132;21.062;2023-03-20T15:20:25;100172.59;;;11.70;100.00
39341;BME280;25059;52.132;21.062;2023-03-20T15:23:12;100176.25;;;11.67;100.00
39341;BME280;25059;52.132;21.062;2023-03-20T15:25:59;100177.38;;;11.61;100.00
39341;BME280;25059;52.132;21.062;2023-03-20T15:28:44;100184.84;;;11.52;100.00
39341;BME280;25059;52.132;21.062;2023-03-20T15:31:32;100191.81;;;11.53;100.00
39341;BME280;25059;52.132;21.062;2023-03-20T15:34:20;100166.56;;;11.49;100.00
39341;BME280;25059;52.132;21.062;2023-03-20T15:37:06;100170.59;;;11.56;100.00
39341;BME280;25059;52.132;21.062;2023-03-20T15:39:56;100184.13;;;11.67;100.00
39341;BME280;25059;52.132;21.062;2023-03-20T15:42:51;100185.56;;;11.74;100.00
39341;BME280;25059;52.132;21.062;2023-03-20T15:45:39;100185.88;;;11.87;100.00
39341;BME280;25059;52.132;21.062;2023-03-20T15:48:25;100176.06;;;11.90;100.00
39341;BME280;25059;52.132;21.062;2023-03-20T15:51:10;100187.06;;;11.99;100.00
39341;BME280;25059;52.132;21.062;2023-03-20T15:53:55;100186.06;;;12.01;100.00
39341;BME280;25059;52.132;21.062;2023-03-20T15:56:43;100184.38;;;12.00;100.00
39341;BME280;25059;52.132;21.062;2023-03-20T15:59:31;100200.19;;;12.00;100.00
39341;BME280;25059;52.132;21.062;2023-03-20T16:02:17;100194.19;;;11.96;100.00
39341;BME280;25059;52.132;21.062;2023-03-20T16:05:03;100194.50;;;11.90;100.00
39341;BME280;25059;52.132;21.062;2023-03-20T16:07:48;100195.63;;;11.85;100.00
39341;BME280;25059;52.132;21.062;2023-03-20T16:10:33;100199.41;;;11.79;100.00
39341;BME280;25059;52.132;21.062;2023-03-20T16:13:19;100197.31;;;11.67;100.00
39341;BME280;25059;52.132;21.062;2023-03-20T16:16:13;100190.59;;;11.60;100.00
39341;BME280;25059;52.132;21.062;2023-03-20T16:18:58;100203.84;;;11.58;100.00
39341;BME280;25059;52.132;21.062;2023-03-20T16:21:47;100203.25;;;11.52;100.00
39341;BME280;25059;52.132;21.062;2023-03-20T16:24:38;100192.88;;;11.49;100.00
39341;BME280;25059;52.132;21.062;2023-03-20T16:27:27;100195.06;;;11.39;100.00
39341;BME280;25059;52.132;21.062;2023-03-20T16:30:16;100194.81;;;11.25;100.00
